sensor_id;sensor_type;location;lat;lon;timestamp;pressure;altitude;pressure_sealevel;temperature;humidity
44079;BME280;29744;49.078;12.878;2024-03-29T00:01:33;95220.81;;;14.44;37.21
44079;BME280;29744;49.078;12.878;2024-03-29T00:06:33;95213.84;;;14.43;37.44
44079;BME280;29744;49.078;12.878;2024-03-29T00:11:34;95213.06;;;14.42;37.35
44079;BME280;29744;49.078;12.878;2024-03-29T00:16:34;95230.41;;;14.41;37.31
44079;BME280;29744;49.078;12.878;2024-03-29T00:21:34;95214.56;;;14.40;37.39
44079;BME280;29744;49.078;12.878;2024-03-29T00:26:34;95213.78;;;14.39;37.43
44079;BME280;29744;49.078;12.878;2024-03-29T00:31:35;95215.69;;;14.39;37.65
44079;BME280;29744;49.078;12.878;2024-03-29T00:36:35;95226.47;;;14.39;37.41
44079;BME280;29744;49.078;12.878;2024-03-29T00:41:35;95222.22;;;14.38;37.51
44079;BME280;29744;49.078;12.878;2024-03-29T00:46:36;95222.56;;;14.36;37.20
44079;BME280;29744;49.078;12.878;2024-03-29T00:51:36;95217.53;;;14.35;37.16
44079;BME280;29744;49.078;12.878;2024-03-29T00:56:36;95224.50;;;14.36;37.68
44079;BME280;29744;49.078;12.878;2024-03-29T01:01:37;95228.31;;;14.35;37.55
44079;BME280;29744;49.078;12.878;2024-03-29T01:06:38;95226.75;;;14.34;37.43
44079;BME280;29744;49.078;12.878;2024-03-29T01:11:39;95218.66;;;14.34;37.64
44079;BME280;29744;49.078;12.878;2024-03-29T01:16:39;95214.41;;;14.33;37.67
44079;BME280;29744;49.078;12.878;2024-03-29T01:21:39;95211.72;;;14.33;37.70
44079;BME280;29744;49.078;12.878;2024-03-29T01:26:40;95176.22;;;14.31;37.21
44079;BME280;29744;49.078;12.878;2024-03-29T01:31:40;95173.88;;;14.29;37.71
44079;BME280;29744;49.078;12.878;2024-03-29T01:36:40;95162.31;;;14.29;37.75
44079;BME280;29744;49.078;12.878;2024-03-29T01:41:41;95146.91;;;14.29;37.76
44079;BME280;29744;49.078;12.878;2024-03-29T01:46:41;95128.38;;;14.28;37.50
44079;BME280;29744;49.078;12.878;2024-03-29T01:51:42;95121.06;;;14.28;37.42
44079;BME280;29744;49.078;12.878;2024-03-29T01:56:44;95156.47;;;14.27;37.49
44079;BME280;29744;49.078;12.878;2024-03-29T02:01:45;95170.75;;;14.27;37.59
44079;BME280;29744;49.078;12.878;2024-03-29T02:06:46;95174.56;;;14.26;37.68
44079;BME280;29744;49.078;12.878;2024-03-29T02:11:47;95180.31;;;14.25;37.65
44079;BME280;29744;49.078;12.878;2024-03-29T02:16:47;95174.16;;;14.24;37.46
44079;BME280;29744;49.078;12.878;2024-03-29T02:21:49;95166.84;;;14.25;37.46
44079;BME280;29744;49.078;12.878;2024-03-29T02:26:51;95160.66;;;14.24;37.74
44079;BME280;29744;49.078;12.878;2024-03-29T02:31:52;95169.09;;;14.23;37.63
44079;BME280;29744;49.078;12.878;2024-03-29T02:36:53;95175.59;;;14.22;37.27
44079;BME280;29744;49.078;12.878;2024-03-29T02:41:53;95157.88;;;14.21;37.70
44079;BME280;29744;49.078;12.878;2024-03-29T02:46:53;95168.66;;;14.21;37.46
44079;BME280;29744;49.078;12.878;2024-03-29T02:51:53;95157.88;;;14.21;37.76
44079;BME280;29744;49.078;12.878;2024-03-29T02:56:54;95152.47;;;14.21;37.36
44079;BME280;29744;49.078;12.878;2024-03-29T03:01:55;95142.81;;;14.19;37.57
44079;BME280;29744;49.078;12.878;2024-03-29T03:06:55;95165.53;;;14.18;37.37
44079;BME280;29744;49.078;12.878;2024-03-29T03:12:06;95145.09;;;14.17;37.26
44079;BME280;29744;49.078;12.878;2024-03-29T03:17:06;95137.00;;;14.17;37.28
44079;BME280;29744;49.078;12.878;2024-03-29T03:22:07;95139.69;;;14.17;37.76
44079;BME280;29744;49.078;12.878;2024-03-29T03:27:07;95143.53;;;14.16;37.43
44079;BME280;29744;49.078;12.878;2024-03-29T03:32:07;95119.25;;;14.16;37.27
44079;BME280;29744;49.078;12.878;2024-03-29T03:37:08;95135.78;;;14.15;37.58
44079;BME280;29744;49.078;12.878;2024-03-29T03:42:08;95135.00;;;14.14;37.26
44079;BME280;29744;49.078;12.878;2024-03-29T03:47:08;95132.31;;;14.14;37.41
44079;BME280;29744;49.078;12.878;2024-03-29T03:52:09;95117.25;;;14.13;37.33
44079;BME280;29744;49.078;12.878;2024-03-29T03:57:09;95133.44;;;14.13;37.73
44079;BME280;29744;49.078;12.878;2024-03-29T04:02:10;95107.63;;;14.12;37.50
44079;BME280;29744;49.078;12.878;2024-03-29T04:07:10;95100.66;;;14.11;37.59
44079;BME280;29744;49.078;12.878;2024-03-29T04:12:10;95109.09;;;14.10;37.83
44079;BME280;29744;49.078;12.878;2024-03-29T04:17:11;95123.78;;;14.12;37.40
44079;BME280;29744;49.078;12.878;2024-03-29T04:22:11;95117.19;;;14.10;37.59
44079;BME280;29744;49.078;12.878;2024-03-29T04:27:12;95117.19;;;14.10;37.47
44079;BME280;29744;49.078;12.878;2024-03-29T04:32:13;95119.09;;;14.09;37.34
44079;BME280;29744;49.078;12.878;2024-03-29T04:37:13;95108.31;;;14.09;37.41
44079;BME280;29744;49.078;12.878;2024-03-29T04:42:14;95119.09;;;14.09;37.34
44079;BME280;29744;49.078;12.878;2024-03-29T04:47:15;95103.34;;;14.11;37.54
44079;BME280;29744;49.078;12.878;2024-03-29T04:52:15;95105.34;;;14.14;37.19
44079;BME280;29744;49.078;12.878;2024-03-29T04:57:15;95110.81;;;14.18;37.29
44079;BME280;29744;49.078;12.878;2024-03-29T05:02:16;95109.78;;;14.23;37.58
44079;BME280;29744;49.078;12.878;2024-03-29T05:07:16;95109.94;;;14.30;37.79
44079;BME280;29744;49.078;12.878;2024-03-29T05:12:16;95120.09;;;14.36;37.33
44079;BME280;29744;49.078;12.878;2024-03-29T05:17:17;95105.63;;;14.44;37.74
44079;BME280;29744;49.078;12.878;2024-03-29T05:22:17;95106.53;;;14.52;37.36
44079;BME280;29744;49.078;12.878;2024-03-29T05:27:17;95098.22;;;14.61;37.48
44079;BME280;29744;49.078;12.878;2024-03-29T05:32:17;95090.28;;;14.68;37.77
44079;BME280;29744;49.078;12.878;2024-03-29T05:37:18;95068.81;;;14.75;37.80
44079;BME280;29744;49.078;12.878;2024-03-29T05:42:19;95072.78;;;14.81;37.56
44079;BME280;29744;49.078;12.878;2024-03-29T05:47:19;95075.19;;;14.86;37.20
44079;BME280;29744;49.078;12.878;2024-03-29T05:52:20;95076.03;;;14.90;37.46
44079;BME280;29744;49.078;12.878;2024-03-29T05:57:23;95081.50;;;14.94;36.87
44079;BME280;29744;49.078;12.878;2024-03-29T06:02:29;95094.69;;;14.99;37.17
44079;BME280;29744;49.078;12.878;2024-03-29T06:07:30;95094.78;;;15.02;37.08
44079;BME280;29744;49.078;12.878;2024-03-29T06:12:33;95106.78;;;15.05;36.99
44079;BME280;29744;49.078;12.878;2024-03-29T06:17:34;95085.97;;;15.05;37.33
44079;BME280;29744;49.078;12.878;2024-03-29T06:22:37;95065.94;;;15.06;36.95
44079;BME280;29744;49.078;12.878;2024-03-29T06:27:37;95087.19;;;15.08;36.90
44079;BME280;29744;49.078;12.878;2024-03-29T06:32:38;95064.44;;;15.09;37.14
44079;BME280;29744;49.078;12.878;2024-03-29T06:37:39;95077.56;;;15.10;36.64
44079;BME280;29744;49.078;12.878;2024-03-29T06:42:40;95071.41;;;15.10;37.13
44079;BME280;29744;49.078;12.878;2024-03-29T06:47:40;95047.47;;;15.08;36.93
44079;BME280;29744;49.078;12.878;2024-03-29T06:52:41;95048.22;;;15.09;36.59
44079;BME280;29744;49.078;12.878;2024-03-29T06:57:41;95036.66;;;15.08;36.71
44079;BME280;29744;49.078;12.878;2024-03-29T07:02:41;95070.97;;;15.08;36.61
44079;BME280;29744;49.078;12.878;2024-03-29T07:07:42;95064.00;;;15.07;36.91
44079;BME280;29744;49.078;12.878;2024-03-29T07:12:42;95054.34;;;15.06;37.18
44079;BME280;29744;49.078;12.878;2024-03-29T07:17:42;95056.63;;;15.04;36.73
44079;BME280;29744;49.078;12.878;2024-03-29T07:22:43;95062.03;;;15.04;37.14
44079;BME280;29744;49.078;12.878;2024-03-29T07:27:45;95048.53;;;15.04;37.16
44079;BME280;29744;49.078;12.878;2024-03-29T07:32:46;95052.38;;;15.03;37.00
44079;BME280;29744;49.078;12.878;2024-03-29T07:37:47;95052.69;;;15.01;37.11
44079;BME280;29744;49.078;12.878;2024-03-29T07:42:49;95057.31;;;15.01;36.58
44079;BME280;29744;49.078;12.878;2024-03-29T07:47:50;95067.34;;;15.00;36.90
44079;BME280;29744;49.078;12.878;2024-03-29T07:52:52;95067.69;;;14.99;36.92
44079;BME280;29744;49.078;12.878;2024-03-29T07:57:53;95059.97;;;14.97;37.16
44079;BME280;29744;49.078;12.878;2024-03-29T08:02:53;95043.00;;;14.97;37.04
44079;BME280;29744;49.078;12.878;2024-03-29T08:07:54;95047.59;;;14.96;36.70
44079;BME280;29744;49.078;12.878;2024-03-29T08:12:55;95033.69;;;14.94;36.67
44079;BME280;29744;49.078;12.878;2024-03-29T08:17:55;95024.81;;;14.94;36.88
44079;BME280;29744;49.078;12.878;2024-03-29T08:22:57;95025.16;;;14.92;37.17
44079;BME280;29744;49.078;12.878;2024-03-29T08:27:58;95010.13;;;14.91;36.88
44079;BME280;29744;49.078;12.878;2024-03-29T08:32:58;95007.78;;;14.90;36.66
44079;BME280;29744;49.078;12.878;2024-03-29T08:38:00;95010.84;;;14.88;36.86
44079;BME280;29744;49.078;12.878;2024-03-29T08:43:00;94997.69;;;14.87;36.58
44079;BME280;29744;49.078;12.878;2024-03-29T08:48:01;95004.22;;;14.86;37.23
44079;BME280;29744;49.078;12.878;2024-03-29T08:53:05;94983.00;;;14.84;36.69
44079;BME280;29744;49.078;12.878;2024-03-29T08:58:05;94987.97;;;14.82;36.99
44079;BME280;29744;49.078;12.878;2024-03-29T09:03:06;94984.50;;;14.81;37.20
44079;BME280;29744;49.078;12.878;2024-03-29T09:08:06;94991.03;;;14.80;37.17
44079;BME280;29744;49.078;12.878;2024-03-29T09:13:06;94992.19;;;14.79;37.03
44079;BME280;29744;49.078;12.878;2024-03-29T09:18:09;95001.41;;;14.78;37.12
44079;BME280;29744;49.078;12.878;2024-03-29T09:23:11;95008.72;;;14.78;37.33
44079;BME280;29744;49.078;12.878;2024-03-29T09:28:15;95010.66;;;14.77;37.33
44079;BME280;29744;49.078;12.878;2024-03-29T09:33:16;95014.50;;;14.76;36.83
44079;BME280;29744;49.078;12.878;2024-03-29T09:38:16;94994.03;;;14.75;37.19
44079;BME280;29744;49.078;12.878;2024-03-29T09:43:17;95001.34;;;14.75;37.51
44079;BME280;29744;49.078;12.878;2024-03-29T09:48:18;95003.28;;;14.74;37.20
44079;BME280;29744;49.078;12.878;2024-03-29T09:53:19;95004.41;;;14.73;37.28
44079;BME280;29744;49.078;12.878;2024-03-29T09:58:20;95020.59;;;14.73;37.23
44079;BME280;29744;49.078;12.878;2024-03-29T10:03:24;95019.81;;;14.73;36.95
44079;BME280;29744;49.078;12.878;2024-03-29T10:08:30;95013.66;;;14.72;37.00
44079;BME280;29744;49.078;12.878;2024-03-29T10:13:31;95008.25;;;14.72;37.37
44079;BME280;29744;49.078;12.878;2024-03-29T10:18:31;95004.00;;;14.71;37.12
44079;BME280;29744;49.078;12.878;2024-03-29T10:23:33;95005.53;;;14.72;37.57
44079;BME280;29744;49.078;12.878;2024-03-29T10:28:35;95000.16;;;14.72;37.30
44079;BME280;29744;49.078;12.878;2024-03-29T10:33:35;95000.50;;;14.71;37.41
44079;BME280;29744;49.078;12.878;2024-03-29T10:38:36;94987.78;;;14.71;37.30
44079;BME280;29744;49.078;12.878;2024-03-29T10:43:38;94983.19;;;14.72;37.29
44079;BME280;29744;49.078;12.878;2024-03-29T10:48:39;94982.75;;;14.70;37.28
44079;BME280;29744;49.078;12.878;2024-03-29T10:53:39;94985.47;;;14.70;37.72
44079;BME280;29744;49.078;12.878;2024-03-29T10:58:44;94992.41;;;14.71;37.44
44079;BME280;29744;49.078;12.878;2024-03-29T11:03:54;94976.59;;;14.69;37.46
44079;BME280;29744;49.078;12.878;2024-03-29T11:08:58;94980.06;;;14.70;37.72
44079;BME280;29744;49.078;12.878;2024-03-29T11:14:03;94985.09;;;14.71;37.11
44079;BME280;29744;49.078;12.878;2024-03-29T11:19:05;94970.41;;;14.69;37.32
44079;BME280;29744;49.078;12.878;2024-03-29T11:24:07;94975.44;;;14.70;37.51
44079;BME280;29744;49.078;12.878;2024-03-29T11:29:18;94973.09;;;14.69;37.17
44079;BME280;29744;49.078;12.878;2024-03-29T11:34:19;94967.34;;;14.70;37.38
44079;BME280;29744;49.078;12.878;2024-03-29T11:39:21;94969.25;;;14.70;37.57
44079;BME280;29744;49.078;12.878;2024-03-29T11:44:22;94962.31;;;14.69;37.66
44079;BME280;29744;49.078;12.878;2024-03-29T11:49:22;94966.94;;;14.68;37.50
44079;BME280;29744;49.078;12.878;2024-03-29T11:54:22;94975.03;;;14.68;37.79
44079;BME280;29744;49.078;12.878;2024-03-29T11:59:23;94981.19;;;14.69;37.70
44079;BME280;29744;49.078;12.878;2024-03-29T12:04:23;94972.31;;;14.68;37.51
44079;BME280;29744;49.078;12.878;2024-03-29T12:09:24;94974.25;;;14.68;37.34
44079;BME280;29744;49.078;12.878;2024-03-29T12:14:24;94970.75;;;14.67;37.27
44079;BME280;29744;49.078;12.878;2024-03-29T12:19:25;94949.19;;;14.67;37.72
44079;BME280;29744;49.078;12.878;2024-03-29T12:24:27;94953.03;;;14.66;37.46
44079;BME280;29744;49.078;12.878;2024-03-29T12:29:28;94943.00;;;14.67;37.41
44079;BME280;29744;49.078;12.878;2024-03-29T12:34:28;94942.22;;;14.66;37.59
44079;BME280;29744;49.078;12.878;2024-03-29T12:39:30;94930.66;;;14.66;37.47
44079;BME280;29744;49.078;12.878;2024-03-29T12:44:33;94934.13;;;14.66;37.28
44079;BME280;29744;49.078;12.878;2024-03-29T12:49:33;94914.47;;;14.66;37.91
44079;BME280;29744;49.078;12.878;2024-03-29T12:54:34;94919.88;;;14.66;37.27
44079;BME280;29744;49.078;12.878;2024-03-29T12:59:34;94914.47;;;14.66;37.42
44079;BME280;29744;49.078;12.878;2024-03-29T13:04:35;94930.66;;;14.66;37.34
44079;BME280;29744;49.078;12.878;2024-03-29T13:09:35;94926.41;;;14.65;37.82
44079;BME280;29744;49.078;12.878;2024-03-29T13:14:35;94926.41;;;14.65;37.73
44079;BME280;29744;49.078;12.878;2024-03-29T13:19:36;94916.38;;;14.65;37.78
44079;BME280;29744;49.078;12.878;2024-03-29T13:24:37;94917.53;;;14.64;37.63
44079;BME280;29744;49.078;12.878;2024-03-29T13:29:37;94902.13;;;14.65;37.92
44079;BME280;29744;49.078;12.878;2024-03-29T13:34:37;94889.75;;;14.64;37.75
44079;BME280;29744;49.078;12.878;2024-03-29T13:39:37;94889.75;;;14.64;37.74
44079;BME280;29744;49.078;12.878;2024-03-29T13:44:38;94887.84;;;14.64;37.79
44079;BME280;29744;49.078;12.878;2024-03-29T13:54:42;94857.38;;;14.64;37.82
44079;BME280;29744;49.078;12.878;2024-03-29T13:59:46;94860.88;;;14.64;37.33
44079;BME280;29744;49.078;12.878;2024-03-29T14:04:47;94859.31;;;14.63;37.61
44079;BME280;29744;49.078;12.878;2024-03-29T14:09:47;94854.69;;;14.64;37.38
44079;BME280;29744;49.078;12.878;2024-03-29T14:14:48;94838.50;;;14.64;37.61
44079;BME280;29744;49.078;12.878;2024-03-29T14:19:50;94833.09;;;14.64;37.71
44079;BME280;29744;49.078;12.878;2024-03-29T14:29:51;94818.84;;;14.63;37.97
44079;BME280;29744;49.078;12.878;2024-03-29T14:34:52;94818.84;;;14.63;37.72
44079;BME280;29744;49.078;12.878;2024-03-29T14:39:52;94821.53;;;14.63;37.55
44079;BME280;29744;49.078;12.878;2024-03-29T14:59:53;94808.03;;;14.63;37.48
44079;BME280;29744;49.078;12.878;2024-03-29T15:04:54;94800.31;;;14.62;38.02
44079;BME280;29744;49.078;12.878;2024-03-29T15:09:54;94811.09;;;14.62;37.49
44079;BME280;29744;49.078;12.878;2024-03-29T15:14:54;94811.09;;;14.62;38.03
44079;BME280;29744;49.078;12.878;2024-03-29T15:19:55;94812.25;;;14.61;37.89
44079;BME280;29744;49.078;12.878;2024-03-29T15:24:55;94803.00;;;14.62;37.96
44079;BME280;29744;49.078;12.878;2024-03-29T15:29:55;94802.25;;;14.61;38.08
44079;BME280;29744;49.078;12.878;2024-03-29T15:34:56;94812.25;;;14.61;37.54
44079;BME280;29744;49.078;12.878;2024-03-29T15:39:56;94813.03;;;14.61;37.66
44079;BME280;29744;49.078;12.878;2024-03-29T15:44:56;94814.94;;;14.61;37.83
44079;BME280;29744;49.078;12.878;2024-03-29T15:49:57;94810.31;;;14.61;37.85
44079;BME280;29744;49.078;12.878;2024-03-29T15:54:57;94813.81;;;14.62;37.61
44079;BME280;29744;49.078;12.878;2024-03-29T15:59:57;94820.34;;;14.61;37.71
44079;BME280;29744;49.078;12.878;2024-03-29T16:04:58;94811.47;;;14.60;37.88
44079;BME280;29744;49.078;12.878;2024-03-29T16:10:00;94812.25;;;14.61;38.08
44079;BME280;29744;49.078;12.878;2024-03-29T16:15:01;94821.13;;;14.61;37.76
44079;BME280;29744;49.078;12.878;2024-03-29T16:20:01;94822.25;;;14.60;37.88
44079;BME280;29744;49.078;12.878;2024-03-29T16:25:02;94824.97;;;14.60;37.78
44079;BME280;29744;49.078;12.878;2024-03-29T16:30:02;94818.44;;;14.61;38.10
44079;BME280;29744;49.078;12.878;2024-03-29T16:35:03;94829.22;;;14.61;38.01
44079;BME280;29744;49.078;12.878;2024-03-29T16:40:04;94831.91;;;14.61;38.10
44079;BME280;29744;49.078;12.878;2024-03-29T16:45:05;94835.75;;;14.60;38.05
44079;BME280;29744;49.078;12.878;2024-03-29T16:50:07;94826.50;;;14.61;37.85
44079;BME280;29744;49.078;12.878;2024-03-29T16:55:08;94833.84;;;14.61;37.92
44079;BME280;29744;49.078;12.878;2024-03-29T17:00:09;94831.13;;;14.61;37.85
44079;BME280;29744;49.078;12.878;2024-03-29T17:05:12;94829.22;;;14.61;37.96
44079;BME280;29744;49.078;12.878;2024-03-29T17:10:13;94827.66;;;14.60;37.80
44079;BME280;29744;49.078;12.878;2024-03-29T17:15:13;94833.84;;;14.61;38.16
44079;BME280;29744;49.078;12.878;2024-03-29T17:20:14;94832.28;;;14.60;37.84
44079;BME280;29744;49.078;12.878;2024-03-29T17:25:14;94827.66;;;14.60;37.84
44079;BME280;29744;49.078;12.878;2024-03-29T17:30:15;94834.19;;;14.59;37.87
44079;BME280;29744;49.078;12.878;2024-03-29T17:35:15;94840.38;;;14.60;38.04
44079;BME280;29744;49.078;12.878;2024-03-29T17:40:16;94828.78;;;14.59;37.69
44079;BME280;29744;49.078;12.878;2024-03-29T17:45:16;94850.38;;;14.59;37.96
44079;BME280;29744;49.078;12.878;2024-03-29T17:50:16;94844.97;;;14.59;38.13
44079;BME280;29744;49.078;12.878;2024-03-29T17:55:17;94841.50;;;14.59;37.93
44079;BME280;29744;49.078;12.878;2024-03-29T18:00:17;94855.78;;;14.59;37.77
44079;BME280;29744;49.078;12.878;2024-03-29T18:05:18;94852.28;;;14.59;37.96
44079;BME280;29744;49.078;12.878;2024-03-29T18:10:18;94854.22;;;14.58;37.89
44079;BME280;29744;49.078;12.878;2024-03-29T18:15:20;94876.56;;;14.59;38.25
44079;BME280;29744;49.078;12.878;2024-03-29T18:20:20;94875.81;;;14.58;38.13
44079;BME280;29744;49.078;12.878;2024-03-29T18:25:21;94885.81;;;14.58;37.92
44079;BME280;29744;49.078;12.878;2024-03-29T18:30:21;94888.50;;;14.58;37.92
44079;BME280;29744;49.078;12.878;2024-03-29T18:35:22;94889.28;;;14.58;37.92
44079;BME280;29744;49.078;12.878;2024-03-29T18:40:23;94886.59;;;14.58;37.93
44079;BME280;29744;49.078;12.878;2024-03-29T18:45:23;94884.25;;;14.57;38.30
44079;BME280;29744;49.078;12.878;2024-03-29T18:50:25;94891.22;;;14.58;38.09
44079;BME280;29744;49.078;12.878;2024-03-29T18:55:26;94891.22;;;14.58;37.82
44079;BME280;29744;49.078;12.878;2024-03-29T19:00:26;94896.59;;;14.58;38.21
44079;BME280;29744;49.078;12.878;2024-03-29T19:05:27;94898.53;;;14.57;37.78
44079;BME280;29744;49.078;12.878;2024-03-29T19:10:27;94908.19;;;14.58;37.95
44079;BME280;29744;49.078;12.878;2024-03-29T19:15:28;94901.22;;;14.57;37.92
44079;BME280;29744;49.078;12.878;2024-03-29T19:20:28;94910.44;;;14.56;37.99
44079;BME280;29744;49.078;12.878;2024-03-29T19:25:28;94909.31;;;14.57;38.17
44079;BME280;29744;49.078;12.878;2024-03-29T19:30:29;94909.31;;;14.57;38.13
44079;BME280;29744;49.078;12.878;2024-03-29T19:35:29;94905.06;;;14.56;37.88
44079;BME280;29744;49.078;12.878;2024-03-29T19:40:29;94908.53;;;14.57;37.85
44079;BME280;29744;49.078;12.878;2024-03-29T19:45:30;94913.16;;;14.56;37.88
44079;BME280;29744;49.078;12.878;2024-03-29T19:50:32;94911.22;;;14.57;37.99
44079;BME280;29744;49.078;12.878;2024-03-29T19:55:32;94917.00;;;14.55;37.67
44079;BME280;29744;49.078;12.878;2024-03-29T20:00:32;94918.53;;;14.56;37.88
44079;BME280;29744;49.078;12.878;2024-03-29T20:05:33;94921.25;;;14.56;37.70
44079;BME280;29744;49.078;12.878;2024-03-29T20:10:40;94922.03;;;14.57;37.73
44079;BME280;29744;49.078;12.878;2024-03-29T20:15:46;94913.94;;;14.57;37.92
44079;BME280;29744;49.078;12.878;2024-03-29T20:20:48;94926.63;;;14.56;38.26
44079;BME280;29744;49.078;12.878;2024-03-29T20:25:48;94928.56;;;14.56;38.08
44079;BME280;29744;49.078;12.878;2024-03-29T20:30:49;94928.56;;;14.56;38.00
44079;BME280;29744;49.078;12.878;2024-03-29T20:35:49;94930.47;;;14.55;38.23
44079;BME280;29744;49.078;12.878;2024-03-29T20:40:50;94929.34;;;14.56;37.70
44079;BME280;29744;49.078;12.878;2024-03-29T20:45:52;94942.03;;;14.56;37.92
44079;BME280;29744;49.078;12.878;2024-03-29T20:50:57;94950.91;;;14.56;38.02
44079;BME280;29744;49.078;12.878;2024-03-29T20:56:04;94956.31;;;14.56;38.03
44079;BME280;29744;49.078;12.878;2024-03-29T21:01:04;94959.38;;;14.55;37.66
44079;BME280;29744;49.078;12.878;2024-03-29T21:06:05;94962.84;;;14.55;38.19
44079;BME280;29744;49.078;12.878;2024-03-29T21:11:05;94958.22;;;14.56;38.21
44079;BME280;29744;49.078;12.878;2024-03-29T21:16:06;94970.94;;;14.55;37.84
44079;BME280;29744;49.078;12.878;2024-03-29T21:21:06;94973.63;;;14.55;37.97
44079;BME280;29744;49.078;12.878;2024-03-29T21:26:06;94967.88;;;14.57;37.95
44079;BME280;29744;49.078;12.878;2024-03-29T21:31:07;94978.25;;;14.55;38.30
44079;BME280;29744;49.078;12.878;2024-03-29T21:36:07;94979.03;;;14.55;37.82
44079;BME280;29744;49.078;12.878;2024-03-29T21:41:07;94982.50;;;14.56;38.13
44079;BME280;29744;49.078;12.878;2024-03-29T21:46:08;94980.59;;;14.56;38.13
44079;BME280;29744;49.078;12.878;2024-03-29T21:51:08;94991.38;;;14.56;37.73
44079;BME280;29744;49.078;12.878;2024-03-29T21:56:09;94992.53;;;14.55;37.94
44079;BME280;29744;49.078;12.878;2024-03-29T22:01:09;94987.91;;;14.56;38.08
44079;BME280;29744;49.078;12.878;2024-03-29T22:06:10;95002.16;;;14.56;38.30
44079;BME280;29744;49.078;12.878;2024-03-29T22:11:10;95008.34;;;14.57;37.79
44079;BME280;29744;49.078;12.878;2024-03-29T22:16:10;95010.28;;;14.56;38.06
44079;BME280;29744;49.078;12.878;2024-03-29T22:21:11;95019.50;;;14.55;37.97
44079;BME280;29744;49.078;12.878;2024-03-29T22:26:11;95018.34;;;14.56;38.06
44079;BME280;29744;49.078;12.878;2024-03-29T22:31:11;95018.34;;;14.56;37.91
44079;BME280;29744;49.078;12.878;2024-03-29T22:36:12;95019.50;;;14.55;37.98
44079;BME280;29744;49.078;12.878;2024-03-29T22:41:12;95020.28;;;14.56;38.08
44079;BME280;29744;49.078;12.878;2024-03-29T22:46:12;95031.06;;;14.56;38.08
44079;BME280;29744;49.078;12.878;2024-03-29T22:51:13;95025.69;;;14.56;38.26
44079;BME280;29744;49.078;12.878;2024-03-29T22:56:13;95025.69;;;14.56;37.84
44079;BME280;29744;49.078;12.878;2024-03-29T23:01:14;95033.00;;;14.55;38.08
44079;BME280;29744;49.078;12.878;2024-03-29T23:06:14;95038.38;;;14.55;38.04
44079;BME280;29744;49.078;12.878;2024-03-29T23:11:14;95039.94;;;14.56;38.33
44079;BME280;29744;49.078;12.878;2024-03-29T23:16:15;95045.34;;;14.56;37.79
44079;BME280;29744;49.078;12.878;2024-03-29T23:21:17;95043.78;;;14.55;38.08
44079;BME280;29744;49.078;12.878;2024-03-29T23:26:17;95046.47;;;14.55;38.06
44079;BME280;29744;49.078;12.878;2024-03-29T23:31:18;95053.44;;;14.56;38.37
44079;BME280;29744;49.078;12.878;2024-03-29T23:36:18;95051.88;;;14.55;38.27
44079;BME280;29744;49.078;12.878;2024-03-29T23:41:19;95061.53;;;14.56;38.31
44079;BME280;29744;49.078;12.878;2024-03-29T23:46:19;95070.41;;;14.57;38.38
44079;BME280;29744;49.078;12.878;2024-03-29T23:51:19;95071.53;;;14.56;38.31
44079;BME280;29744;49.078;12.878;2024-03-29T23:56:20;95060.75;;;14.56;38.16
